createdAt,value
2023-05-10T00:00:21.470Z,95704.53
2023-05-10T00:02:49.575Z,95693.03
2023-05-10T00:05:17.647Z,95683.06
2023-05-10T00:07:45.891Z,95682.59
2023-05-10T00:10:14.143Z,95679.50
2023-05-10T00:12:42.538Z,95674.22
2023-05-10T00:15:11.425Z,95673.13
2023-05-10T00:17:41.571Z,95678.41
2023-05-10T00:20:10.550Z,95676.06
2023-05-10T00:22:38.631Z,95670.78
2023-05-10T00:25:08.028Z,95671.25
2023-05-10T00:27:36.047Z,95685.84
2023-05-10T00:30:04.238Z,95683.84
2023-05-10T00:32:32.312Z,95689.47
2023-05-10T00:35:01.993Z,95687.13
2023-05-10T00:37:30.056Z,95690.84
2023-05-10T00:39:58.101Z,95702.97
2023-05-10T00:42:26.166Z,95702.50
2023-05-10T00:44:54.283Z,95712.44
2023-05-10T00:47:23.031Z,95707.94
2023-05-10T00:49:51.175Z,95714.47
2023-05-10T00:52:20.806Z,95720.53
2023-05-10T00:54:49.923Z,95726.75
2023-05-10T00:57:17.985Z,95732.81
2023-05-10T00:59:46.094Z,95734.97
2023-05-10T01:02:14.349Z,95727.69
2023-05-10T01:04:42.912Z,95722.88
2023-05-10T01:07:11.634Z,95709.03
2023-05-10T01:09:41.315Z,95698.16
2023-05-10T01:12:09.700Z,95701.75
2023-05-10T01:14:38.433Z,95698.81
2023-05-10T01:17:08.419Z,95699.41
2023-05-10T01:19:38.789Z,95703.59
2023-05-10T01:22:20.984Z,95701.97
2023-05-10T01:25:13.708Z,95715.19
2023-05-10T01:28:12.379Z,95704.97
2023-05-10T01:31:25.325Z,95715.84
2023-05-10T01:34:00.156Z,95713.91
2023-05-10T01:36:32.934Z,95707.22
2023-05-10T01:39:07.610Z,95704.22
2023-05-10T01:41:45.380Z,95694.28
2023-05-10T01:44:20.529Z,95698.16
2023-05-10T01:46:54.423Z,95702.06
2023-05-10T01:49:28.627Z,95710.75
2023-05-10T01:52:01.976Z,95713.06
2023-05-10T01:54:31.238Z,95721.94
2023-05-10T01:57:05.253Z,95713.91
2023-05-10T01:59:40.302Z,95721.72
2023-05-10T02:02:09.304Z,95721.59
2023-05-10T02:04:41.200Z,95723.03
2023-05-10T02:07:10.956Z,95713.91
2023-05-10T02:09:40.411Z,95721.72
2023-05-10T02:12:09.838Z,95720.81
2023-05-10T02:14:39.482Z,95725.47
2023-05-10T02:17:09.982Z,95717.38
2023-05-10T02:19:42.828Z,95719.66
2023-05-10T02:22:11.966Z,95717.16
2023-05-10T02:24:41.883Z,95710.63
2023-05-10T02:27:12.017Z,95709.97
2023-05-10T02:29:40.962Z,95712.13
2023-05-10T02:32:10.889Z,95716.63
2023-05-10T02:34:41.740Z,95715.25
2023-05-10T02:37:10.809Z,95714.16
2023-05-10T02:39:41.688Z,95722.84
2023-05-10T02:42:10.582Z,95725.66
2023-05-10T02:44:39.686Z,95721.47
2023-05-10T02:47:07.719Z,95727.16
2023-05-10T02:49:36.246Z,95721.88
2023-05-10T02:52:10.133Z,95715.53
2023-05-10T02:54:46.611Z,95719.13
2023-05-10T02:57:20.428Z,95726.31
2023-05-10T02:59:48.496Z,95718.00
2023-05-10T03:02:16.744Z,95718.16
2023-05-10T03:04:44.877Z,95721.59
2023-05-10T03:07:14.488Z,95720.63
2023-05-10T03:09:42.684Z,95718.28
2023-05-10T03:12:17.887Z,95710.81
2023-05-10T03:14:55.534Z,95713.69
2023-05-10T03:17:31.353Z,95715.53
2023-05-10T03:20:05.504Z,95712.13
2023-05-10T03:22:39.724Z,95705.28
2023-05-10T03:25:10.488Z,95713.13
2023-05-10T03:27:41.268Z,95712.97
2023-05-10T03:30:12.787Z,95712.59
2023-05-10T03:32:41.258Z,95712.22
2023-05-10T03:35:10.402Z,95700.44
2023-05-10T03:37:40.082Z,95704.91
2023-05-10T03:40:09.240Z,95707.84
2023-05-10T03:42:37.362Z,95705.81
2023-05-10T03:45:05.912Z,95706.41
2023-05-10T03:47:34.100Z,95707.59
2023-05-10T03:50:02.844Z,95706.34
2023-05-10T03:52:30.961Z,95708.63
2023-05-10T03:55:00.392Z,95699.28
2023-05-10T03:57:28.432Z,95699.69
2023-05-10T03:59:56.488Z,95691.09
2023-05-10T04:02:24.790Z,95699.91
2023-05-10T04:04:53.033Z,95691.03
2023-05-10T04:07:21.149Z,95692.88
2023-05-10T04:09:49.390Z,95698.44
2023-05-10T04:12:18.919Z,95691.69
2023-05-10T04:14:46.990Z,95689.53
2023-05-10T04:17:15.303Z,95693.44
2023-05-10T04:19:43.485Z,95689.16
2023-05-10T04:22:11.824Z,95696.19
2023-05-10T04:24:39.833Z,95691.69
2023-05-10T04:27:07.851Z,95698.03
2023-05-10T04:29:37.254Z,95700.09
2023-05-10T04:32:05.832Z,95705.06
2023-05-10T04:34:35.187Z,95697.94
2023-05-10T04:37:03.289Z,95705.72
2023-05-10T04:39:31.431Z,95700.66
2023-05-10T04:41:59.444Z,95702.28
2023-05-10T04:44:27.502Z,95693.94
2023-05-10T04:46:57.078Z,95691.97
2023-05-10T04:49:25.116Z,95705.03
2023-05-10T04:51:53.366Z,95703.84
2023-05-10T04:54:21.453Z,95697.19
2023-05-10T04:56:49.613Z,95699.66
2023-05-10T04:59:17.727Z,95697.59
2023-05-10T05:01:45.865Z,95704.06
2023-05-10T05:04:15.744Z,95688.50
2023-05-10T05:06:43.836Z,95704.06
2023-05-10T05:09:12.311Z,95711.38
2023-05-10T05:11:41.435Z,95717.44
2023-05-10T05:14:09.529Z,95714.09
2023-05-10T05:16:37.651Z,95713.41
2023-05-10T05:19:05.729Z,95708.97
2023-05-10T05:21:35.285Z,95728.56
2023-05-10T05:24:03.331Z,95727.06
2023-05-10T05:26:31.449Z,95724.22
2023-05-10T05:28:59.487Z,95730.94
2023-05-10T05:31:27.480Z,95738.72
2023-05-10T05:33:55.584Z,95734.81
2023-05-10T05:36:23.860Z,95735.84
2023-05-10T05:38:53.314Z,95746.09
2023-05-10T05:41:22.624Z,95741.44
2023-05-10T05:43:50.752Z,95745.03
2023-05-10T05:46:18.902Z,95747.44
2023-05-10T05:48:47.125Z,95742.84
2023-05-10T05:51:15.165Z,95739.19
2023-05-10T05:53:43.214Z,95744.25
2023-05-10T05:56:12.702Z,95746.03
2023-05-10T05:58:40.900Z,95740.03
2023-05-10T06:01:09.530Z,95742.56
2023-05-10T06:03:37.590Z,95743.53
2023-05-10T06:06:06.277Z,95745.91
2023-05-10T06:08:35.060Z,95741.22
2023-05-10T06:11:05.258Z,95735.63
2023-05-10T06:13:36.359Z,95739.66
2023-05-10T06:16:05.132Z,95734.31
2023-05-10T06:18:33.117Z,95731.13
2023-05-10T06:21:01.095Z,95740.03
2023-05-10T06:23:29.840Z,95738.50
2023-05-10T06:25:57.823Z,95741.25
2023-05-10T06:28:26.011Z,95737.38
2023-05-10T06:30:55.412Z,95743.44
2023-05-10T06:33:23.453Z,95741.75
2023-05-10T06:35:51.511Z,95741.16
2023-05-10T06:38:19.579Z,95747.84
2023-05-10T06:40:47.597Z,95732.66
2023-05-10T06:43:16.525Z,95733.44
2023-05-10T06:45:44.569Z,95732.66
2023-05-10T06:48:14.112Z,95741.22
2023-05-10T06:50:42.206Z,95727.44
2023-05-10T06:53:10.379Z,95735.69
2023-05-10T06:55:38.404Z,95734.78
2023-05-10T06:58:07.197Z,95738.22
2023-05-10T07:00:35.437Z,95735.59
2023-05-10T07:03:03.569Z,95744.31
2023-05-10T07:05:33.099Z,95737.94
2023-05-10T07:08:01.291Z,95739.66
2023-05-10T07:10:29.533Z,95736.25
2023-05-10T07:12:57.741Z,95735.78
2023-05-10T07:15:25.799Z,95740.09
2023-05-10T07:17:53.963Z,95741.66
2023-05-10T07:20:22.063Z,95740.56
2023-05-10T07:22:51.543Z,95736.66
2023-05-10T07:25:19.738Z,95743.19
2023-05-10T07:27:49.512Z,95741.47
2023-05-10T07:30:17.643Z,95742.25
2023-05-10T07:32:46.113Z,95745.66
2023-05-10T07:35:14.392Z,95748.44
2023-05-10T07:37:42.613Z,95740.25
2023-05-10T07:40:12.993Z,95741.31
2023-05-10T07:42:41.313Z,95747.03
2023-05-10T07:45:11.364Z,95742.47
2023-05-10T07:47:39.502Z,95728.97
2023-05-10T07:50:09.357Z,95728.78
2023-05-10T07:52:37.492Z,95729.56
2023-05-10T07:55:06.456Z,95725.63
2023-05-10T07:57:35.894Z,95718.88
2023-05-10T08:00:04.140Z,95722.16
2023-05-10T08:02:32.265Z,95728.91
2023-05-10T08:05:00.337Z,95705.94
2023-05-10T08:07:28.458Z,95721.81
2023-05-10T08:09:57.305Z,95711.75
2023-05-10T08:12:25.337Z,95713.09
2023-05-10T08:14:54.783Z,95715.94
2023-05-10T08:17:24.187Z,95703.81
2023-05-10T08:19:52.842Z,95707.63
2023-05-10T08:22:21.022Z,95704.38
2023-05-10T08:24:49.069Z,95701.94
2023-05-10T08:27:17.103Z,95706.72
2023-05-10T08:29:50.147Z,95702.44
2023-05-10T08:32:20.368Z,95694.22
2023-05-10T08:34:48.399Z,95694.81
2023-05-10T08:37:16.669Z,95704.50
2023-05-10T08:39:44.716Z,95697.69
2023-05-10T08:42:14.725Z,95706.78
2023-05-10T08:44:43.427Z,95700.63
2023-05-10T08:47:12.586Z,95718.28
2023-05-10T08:49:43.863Z,95711.03
2023-05-10T08:52:15.362Z,95711.47
2023-05-10T08:54:43.979Z,95716.31
2023-05-10T08:57:12.834Z,95708.03
2023-05-10T08:59:41.167Z,95709.13
2023-05-10T09:02:12.259Z,95718.56
2023-05-10T09:04:42.151Z,95696.53
2023-05-10T09:07:10.300Z,95703.56
2023-05-10T09:09:39.262Z,95708.75
2023-05-10T09:12:08.245Z,95706.34
2023-05-10T09:14:37.914Z,95701.44
2023-05-10T09:17:07.261Z,95702.78
2023-05-10T09:19:35.387Z,95698.97
2023-05-10T09:22:04.862Z,95698.94
2023-05-10T09:24:33.115Z,95697.50
2023-05-10T09:27:01.104Z,95700.31
2023-05-10T09:29:40.894Z,95684.75
2023-05-10T09:32:08.949Z,95684.81
2023-05-10T09:34:41.047Z,95691.38
2023-05-10T09:37:10.696Z,95685.59
2023-05-10T09:39:40.003Z,95689.38
2023-05-10T09:42:09.764Z,95669.34
2023-05-10T09:44:39.090Z,95678.19
2023-05-10T09:47:07.180Z,95670.72
2023-05-10T09:49:35.302Z,95667.47
2023-05-10T09:52:04.961Z,95669.31
2023-05-10T09:54:35.238Z,95652.13
2023-05-10T09:57:03.473Z,95660.66
2023-05-10T09:59:32.234Z,95661.91
2023-05-10T10:02:02.343Z,95665.38
2023-05-10T10:04:31.022Z,95659.84
2023-05-10T10:07:04.610Z,95663.00
2023-05-10T10:09:35.367Z,95656.63
2023-05-10T10:12:04.776Z,95670.47
2023-05-10T10:14:33.094Z,95678.78
2023-05-10T10:19:36.449Z,95668.56
2023-05-10T10:22:05.239Z,95656.13
2023-05-10T10:24:34.895Z,95660.03
2023-05-10T10:27:11.432Z,95666.41
2023-05-10T10:29:46.917Z,95667.66
2023-05-10T10:32:28.161Z,95666.44
2023-05-10T10:34:57.926Z,95658.66
2023-05-10T10:37:43.382Z,95663.97
2023-05-10T10:40:34.633Z,95667.34
2023-05-10T10:43:25.098Z,95663.59
2023-05-10T10:46:13.692Z,95653.75
2023-05-10T10:48:42.218Z,95653.63
2023-05-10T10:51:12.697Z,95653.31
2023-05-10T10:53:42.134Z,95640.16
2023-05-10T10:56:14.560Z,95638.28
2023-05-10T10:58:43.312Z,95636.78
2023-05-10T11:01:13.282Z,95634.56
2023-05-10T11:03:41.441Z,95639.63
2023-05-10T11:06:10.189Z,95646.59
2023-05-10T11:08:45.564Z,95639.69
2023-05-10T11:11:17.107Z,95629.03
2023-05-10T11:13:49.202Z,95628.59
2023-05-10T11:16:21.166Z,95637.19
2023-05-10T11:18:59.584Z,95627.91
2023-05-10T11:21:27.806Z,95639.22
2023-05-10T11:23:58.467Z,95636.34
2023-05-10T11:26:32.348Z,95632.81
2023-05-10T11:29:01.908Z,95641.78
2023-05-10T11:31:31.093Z,95632.94
2023-05-10T11:34:02.776Z,95634.97
2023-05-10T11:36:32.184Z,95636.59
2023-05-10T11:39:00.490Z,95621.03
2023-05-10T11:41:31.729Z,95622.13
2023-05-10T11:44:01.127Z,95626.78
2023-05-10T11:46:30.546Z,95628.47
2023-05-10T11:49:02.823Z,95621.66
2023-05-10T11:51:31.285Z,95625.94
2023-05-10T11:53:59.603Z,95631.28
2023-05-10T11:56:29.067Z,95630.31
2023-05-10T11:58:58.318Z,95630.72
2023-05-10T12:01:27.556Z,95630.31
2023-05-10T12:04:00.016Z,95623.34
2023-05-10T12:06:29.635Z,95623.69
2023-05-10T12:08:57.766Z,95627.78
2023-05-10T12:11:28.319Z,95616.13
2023-05-10T12:13:58.491Z,95625.66
2023-05-10T12:16:28.132Z,95627.00
2023-05-10T12:18:58.307Z,95631.28
2023-05-10T12:21:27.274Z,95636.34
2023-05-10T12:23:56.636Z,95631.34
2023-05-10T12:26:25.670Z,95638.59
2023-05-10T12:28:53.789Z,95644.56
2023-05-10T12:31:23.517Z,95642.31
2023-05-10T12:33:51.620Z,95647.03
2023-05-10T12:36:26.411Z,95647.56
2023-05-10T12:39:05.959Z,95645.88
2023-05-10T12:41:33.962Z,95646.56
2023-05-10T12:44:01.992Z,95650.59
2023-05-10T12:46:32.294Z,95647.31
2023-05-10T12:49:08.523Z,95649.31
2023-05-10T12:51:37.392Z,95651.88
2023-05-10T12:54:06.034Z,95651.72
2023-05-10T12:56:34.125Z,95645.25
2023-05-10T12:59:02.187Z,95647.72
2023-05-10T13:01:31.794Z,95654.38
2023-05-10T13:04:01.194Z,95645.34
2023-05-10T13:06:29.382Z,95645.34
2023-05-10T13:08:58.610Z,95640.78
2023-05-10T13:11:26.736Z,95640.72
2023-05-10T13:13:54.761Z,95641.13
2023-05-10T13:16:22.870Z,95637.28
2023-05-10T13:18:52.494Z,95630.31
2023-05-10T13:21:20.567Z,95635.25
2023-05-10T13:23:48.730Z,95638.22
2023-05-10T13:26:16.791Z,95634.41
2023-05-10T13:28:47.132Z,95625.94
2023-05-10T13:31:15.247Z,95634.28
2023-05-10T13:33:43.361Z,95629.06
2023-05-10T13:36:12.820Z,95624.44
2023-05-10T13:38:40.917Z,95618.97
2023-05-10T13:41:09.147Z,95620.44
2023-05-10T13:43:37.313Z,95638.78
2023-05-10T13:46:05.756Z,95628.28
2023-05-10T13:48:34.099Z,95626.50
2023-05-10T13:51:02.692Z,95635.78
2023-05-10T13:53:32.155Z,95630.56
2023-05-10T13:56:00.248Z,95633.78
2023-05-10T13:58:28.316Z,95630.00
2023-05-10T14:00:56.383Z,95629.22
2023-05-10T14:03:24.481Z,95625.78
2023-05-10T14:05:52.597Z,95627.63
2023-05-10T14:08:21.250Z,95632.41
2023-05-10T14:10:51.762Z,95622.44
2023-05-10T14:13:19.861Z,95629.25
2023-05-10T14:15:47.906Z,95623.97
2023-05-10T14:18:15.963Z,95627.91
2023-05-10T14:20:44.011Z,95627.31
2023-05-10T14:23:12.355Z,95635.59
2023-05-10T14:25:42.742Z,95636.91
2023-05-10T14:28:12.857Z,95635.34
2023-05-10T14:30:40.974Z,95636.03
2023-05-10T14:33:09.474Z,95632.78
2023-05-10T14:35:37.636Z,95634.31
2023-05-10T14:38:06.442Z,95640.09
2023-05-10T14:40:34.589Z,95635.88
2023-05-10T14:43:02.909Z,95625.34
2023-05-10T14:45:32.664Z,95636.28
2023-05-10T14:48:00.928Z,95626.19
2023-05-10T14:53:00.162Z,95641.63
2023-05-10T14:55:28.367Z,95643.44
2023-05-10T14:57:56.379Z,95646.97
2023-05-10T15:00:24.637Z,95645.66
2023-05-10T15:02:54.585Z,95637.13
2023-05-10T15:05:23.214Z,95644.63
2023-05-10T15:07:51.644Z,95645.53
2023-05-10T15:10:20.615Z,95656.44
2023-05-10T15:12:48.643Z,95655.09
2023-05-10T15:15:16.958Z,95658.94
2023-05-10T15:17:45.204Z,95659.38
2023-05-10T15:20:15.081Z,95663.44
2023-05-10T15:22:43.240Z,95671.66
2023-05-10T15:25:11.713Z,95670.09
2023-05-10T15:27:39.723Z,95673.41
2023-05-10T15:30:09.341Z,95674.41
2023-05-10T15:32:38.161Z,95663.91
2023-05-10T15:35:07.164Z,95665.06
2023-05-10T15:37:36.703Z,95672.53
2023-05-10T15:40:05.221Z,95668.75
2023-05-10T15:42:33.509Z,95671.84
2023-05-10T15:45:01.696Z,95670.28
2023-05-10T15:47:32.881Z,95671.41
2023-05-10T15:50:01.193Z,95674.25
2023-05-10T15:52:29.416Z,95679.31
2023-05-10T15:54:58.968Z,95676.56
2023-05-10T15:57:26.957Z,95662.03
2023-05-10T15:59:55.036Z,95679.06
2023-05-10T16:02:23.665Z,95681.66
2023-05-10T16:04:51.889Z,95684.66
2023-05-10T16:07:20.027Z,95682.94
2023-05-10T16:09:49.475Z,95681.53
2023-05-10T16:12:19.090Z,95687.38
2023-05-10T16:14:47.973Z,95679.31
2023-05-10T16:17:16.464Z,95691.28
2023-05-10T16:19:44.680Z,95686.13
2023-05-10T16:22:12.815Z,95686.31
2023-05-10T16:24:40.966Z,95696.41
2023-05-10T16:27:09.160Z,95694.88
2023-05-10T16:29:38.712Z,95691.38
2023-05-10T16:32:07.173Z,95691.78
2023-05-10T16:34:35.252Z,95701.84
2023-05-10T16:37:03.380Z,95700.19
2023-05-10T16:39:31.584Z,95699.22
2023-05-10T16:41:59.638Z,95701.06
2023-05-10T16:44:27.701Z,95702.06
2023-05-10T16:46:57.169Z,95712.56
2023-05-10T16:49:26.516Z,95716.66
2023-05-10T16:51:54.560Z,95723.94
2023-05-10T16:54:22.924Z,95710.31
2023-05-10T16:56:51.083Z,95717.72
2023-05-10T16:59:19.161Z,95728.53
2023-05-10T17:01:47.401Z,95729.25
2023-05-10T17:04:17.867Z,95728.09
2023-05-10T17:06:45.933Z,95731.16
2023-05-10T17:09:14.083Z,95740.91
2023-05-10T17:11:44.212Z,95741.34
2023-05-10T17:14:12.470Z,95751.88
2023-05-10T17:16:40.617Z,95763.94
2023-05-10T17:19:09.589Z,95759.00
2023-05-10T17:21:39.225Z,95772.44
2023-05-10T17:24:07.640Z,95783.81
2023-05-10T17:26:35.965Z,95776.16
2023-05-10T17:29:04.651Z,95770.41
2023-05-10T17:31:33.567Z,95771.81
2023-05-10T17:34:04.728Z,95763.41
2023-05-10T17:36:33.700Z,95770.59
2023-05-10T17:39:03.350Z,95767.47
2023-05-10T17:41:31.391Z,95780.28
2023-05-10T17:43:59.593Z,95781.22
2023-05-10T17:46:27.964Z,95781.56
2023-05-10T17:48:56.080Z,95778.75
2023-05-10T17:51:24.240Z,95775.81
2023-05-10T17:53:52.835Z,95778.97
2023-05-10T17:56:23.386Z,95792.59
2023-05-10T17:58:51.528Z,95790.28
2023-05-10T18:01:19.793Z,95800.25
2023-05-10T18:03:51.971Z,95801.06
2023-05-10T18:06:20.006Z,95810.09
2023-05-10T18:08:48.141Z,95798.13
2023-05-10T18:11:16.843Z,95806.06
2023-05-10T18:13:46.388Z,95807.59
2023-05-10T18:16:14.610Z,95807.59
2023-05-10T18:18:43.003Z,95811.34
2023-05-10T18:21:11.278Z,95815.41
2023-05-10T18:23:39.476Z,95816.19
2023-05-10T18:26:09.267Z,95815.84
2023-05-10T18:28:37.821Z,95815.53
2023-05-10T18:31:07.445Z,95824.06
2023-05-10T18:33:35.521Z,95823.72
2023-05-10T18:36:04.331Z,95818.72
2023-05-10T18:38:32.596Z,95813.22
2023-05-10T18:41:00.822Z,95813.19
2023-05-10T18:43:29.173Z,95824.38
2023-05-10T18:45:57.400Z,95825.13
2023-05-10T18:48:26.982Z,95826.69
2023-05-10T18:50:55.098Z,95827.78
2023-05-10T18:53:23.418Z,95821.41
2023-05-10T18:55:57.052Z,95824.69
2023-05-10T18:58:25.753Z,95822.97
2023-05-10T19:00:54.147Z,95823.72
2023-05-10T19:03:22.697Z,95823.06
2023-05-10T19:05:52.195Z,95842.75
2023-05-10T19:08:20.371Z,95836.34
2023-05-10T19:10:48.480Z,95840.50
2023-05-10T19:13:16.595Z,95839.72
2023-05-10T19:15:45.960Z,95840.63
2023-05-10T19:18:15.351Z,95852.97
2023-05-10T19:20:43.411Z,95853.88
2023-05-10T19:23:12.919Z,95857.41
2023-05-10T19:25:42.418Z,95853.81
2023-05-10T19:28:11.312Z,95868.56
2023-05-10T19:30:39.662Z,95857.53
2023-05-10T19:33:09.336Z,95864.97
2023-05-10T19:35:39.026Z,95863.22
2023-05-10T19:38:07.228Z,95860.41
2023-05-10T19:40:36.747Z,95860.88
2023-05-10T19:43:04.940Z,95862.75
2023-05-10T19:45:33.986Z,95860.59
2023-05-10T19:48:02.630Z,95862.94
2023-05-10T19:50:30.857Z,95850.81
2023-05-10T19:53:00.623Z,95856.38
2023-05-10T19:55:30.034Z,95869.28
2023-05-10T19:58:01.539Z,95871.13
2023-05-10T20:00:29.816Z,95856.69
2023-05-10T20:02:57.964Z,95868.69
2023-05-10T20:05:26.308Z,95871.31
2023-05-10T20:07:54.738Z,95882.34
2023-05-10T20:10:25.164Z,95877.56
2023-05-10T20:12:54.705Z,95874.44
2023-05-10T20:15:24.892Z,95876.59
2023-05-10T20:17:53.981Z,95867.44
2023-05-10T20:20:22.926Z,95875.63
2023-05-10T20:22:51.418Z,95865.38
2023-05-10T20:25:20.329Z,95867.25
2023-05-10T20:27:50.970Z,95872.63
2023-05-10T20:30:19.797Z,95873.13
2023-05-10T20:32:49.731Z,95866.28
2023-05-10T20:35:18.154Z,95864.72
2023-05-10T20:37:48.428Z,95857.88
2023-05-10T20:40:16.743Z,95869.50
2023-05-10T20:42:45.119Z,95863.50
2023-05-10T20:45:13.593Z,95868.44
2023-05-10T20:47:42.127Z,95852.59
2023-05-10T20:50:13.514Z,95862.72
2023-05-10T20:52:41.605Z,95858.50
2023-05-10T20:55:10.601Z,95869.63
2023-05-10T20:57:38.688Z,95862.00
2023-05-10T21:00:08.329Z,95853.63
2023-05-10T21:02:36.438Z,95859.31
2023-05-10T21:05:05.332Z,95854.03
2023-05-10T21:07:34.882Z,95850.53
2023-05-10T21:10:03.276Z,95858.34
2023-05-10T21:12:31.497Z,95860.97
2023-05-10T21:14:59.668Z,95857.38
2023-05-10T21:17:27.861Z,95870.06
2023-05-10T21:19:56.017Z,95866.94
2023-05-10T21:22:24.063Z,95866.16
2023-05-10T21:24:53.505Z,95864.41
2023-05-10T21:27:21.694Z,95855.06
2023-05-10T21:29:49.918Z,95868.94
2023-05-10T21:32:18.040Z,95867.66
2023-05-10T21:34:46.124Z,95863.78
2023-05-10T21:37:14.113Z,95868.56
2023-05-10T21:39:42.201Z,95864.34
2023-05-10T21:42:11.736Z,95870.69
2023-05-10T21:44:39.911Z,95874.41
2023-05-10T21:47:08.065Z,95877.06
2023-05-10T21:49:36.473Z,95869.44
2023-05-10T21:52:04.594Z,95873.44
2023-05-10T21:54:32.746Z,95871.97
2023-05-10T21:57:00.852Z,95868.06
2023-05-10T21:59:30.313Z,95866.63
2023-05-10T22:01:58.492Z,95864.88
2023-05-10T22:04:26.665Z,95863.88
2023-05-10T22:06:54.786Z,95871.19
2023-05-10T22:09:24.402Z,95872.28
2023-05-10T22:11:52.649Z,95875.97
2023-05-10T22:14:20.806Z,95872.84
2023-05-10T22:16:50.510Z,95869.00
2023-05-10T22:19:18.737Z,95877.97
2023-05-10T22:21:46.758Z,95861.19
2023-05-10T22:24:14.794Z,95870.44
2023-05-10T22:26:42.877Z,95862.75
2023-05-10T22:29:11.149Z,95862.34
2023-05-10T22:31:39.597Z,95860.16
2023-05-10T22:34:09.201Z,95866.56
2023-05-10T22:36:37.404Z,95874.75
2023-05-10T22:39:05.601Z,95862.88
2023-05-10T22:41:34.384Z,95872.53
2023-05-10T22:44:04.977Z,95876.94
2023-05-10T22:46:33.241Z,95869.75
2023-05-10T22:49:01.352Z,95881.25
2023-05-10T22:51:30.904Z,95873.38
2023-05-10T22:53:59.012Z,95877.56
2023-05-10T22:56:27.269Z,95879.13
2023-05-10T22:58:55.617Z,95879.13
2023-05-10T23:01:23.796Z,95876.78
2023-05-10T23:03:52.068Z,95877.66
2023-05-10T23:06:20.248Z,95887.31
2023-05-10T23:08:49.949Z,95891.59
2023-05-10T23:11:18.037Z,95877.16
2023-05-10T23:13:46.255Z,95876.09
2023-05-10T23:16:14.360Z,95877.50
2023-05-10T23:18:42.593Z,95879.25
2023-05-10T23:21:10.835Z,95877.47
2023-05-10T23:23:38.921Z,95880.69
2023-05-10T23:26:08.942Z,95879.22
2023-05-10T23:28:37.100Z,95880.94
2023-05-10T23:31:05.218Z,95879.53
2023-05-10T23:33:33.356Z,95866.97
2023-05-10T23:36:01.524Z,95870.56
2023-05-10T23:38:29.560Z,95873.69
2023-05-10T23:40:57.583Z,95871.44
2023-05-10T23:43:27.048Z,95867.25
2023-05-10T23:45:55.407Z,95860.91
2023-05-10T23:48:23.594Z,95855.31
2023-05-10T23:50:51.886Z,95867.03
2023-05-10T23:53:20.383Z,95859.56
2023-05-10T23:55:48.497Z,95872.22
2023-05-10T23:58:16.545Z,95862.34
